Martine P — 2FIL4 — position and weather

sailwx.info

Track history (hours):
 
Tides and Currents Weather Stations Pressure Air Temp Water Temp Dewpoint Dewpoint Depression Visibility Wind Speed Wind Dir Waves Ship Positions

Martine P

Last reported at 2017-Oct-19 21:55 UTC. Time now 2017-Oct-20 03:38 UTC.
Position N 54°47' E 014°04'.

Length 27 m; draft 3.2 m.

Type: Tug. MMSI: 235091541.

Date/timePositionNaut miles runAvg speedWind from/ knotsBaromVisibWave heightAir tempDewpointWater temp
2017-Oct-19 21:55N 54°47' E 014°04'2 3.8
2017-Oct-19 21:30N 54°46' E 014°07'2 2.9
2017-Oct-19 20:58N 54°47' E 014°05'2 1.1
2017-Oct-19 19:02N 54°48' E 014°08'0 0.0
2017-Oct-19 19:00N 54°48' E 014°08'1 0.2
2017-Oct-19 13:40N 54°49' E 014°09'0 0.0
2017-Oct-19 11:44N 54°49' E 014°09'3 1.0
2017-Oct-19 08:49N 54°48' E 014°05'2 1.1
2017-Oct-19 07:00N 54°48' E 014°08'1 0.3
2017-Oct-19 02:13N 54°49' E 014°09'0 0.9
2017-Oct-19 02:00N 54°49' E 014°09'3 0.2
2017-Oct-18 13:27N 54°48' E 014°05'0 0.0
2017-Oct-18 12:56N 54°48' E 014°05'1 2.0
2017-Oct-18 12:28N 54°48' E 014°07'1 2.2
2017-Oct-18 11:49N 54°49' E 014°09'3 1.3
2017-Oct-18 09:42N 54°48' E 014°04'0 0.0
2017-Oct-18 09:11N 54°48' E 014°04'0 1.1
2017-Oct-18 08:47N 54°48' E 014°05'1 1.6
2017-Oct-18 08:27N 54°48' E 014°04'0 0.1
2017-Oct-18 07:44N 54°48' E 014°04'0 0.7
2017-Oct-18 07:18N 54°48' E 014°05'0 0.3
2017-Oct-18 06:46N 54°48' E 014°05'0 0.7
2017-Oct-18 06:20N 54°48' E 014°04'0 0.3
2017-Oct-18 05:32N 54°47' E 014°04'0 0.1
2017-Oct-18 04:27N 54°48' E 014°04'0 0.2
2017-Oct-18 03:36N 54°48' E 014°04'0 0.0
2017-Oct-18 03:18N 54°48' E 014°04'0 0.1
2017-Oct-17 22:36N 54°48' E 014°05'0 0.4
2017-Oct-17 21:23N 54°48' E 014°04'1 1.1
2017-Oct-17 20:32N 54°48' E 014°06'0 0.7
2017-Oct-17 20:30N 54°48' E 014°06'0 0.2
2017-Oct-17 19:55N 54°48' E 014°06'0 0.4
2017-Oct-17 19:21N 54°48' E 014°06'0 0.4
2017-Oct-17 18:06N 54°48' E 014°05'0 0.6
2017-Oct-17 17:44N 54°48' E 014°05'0 0.4
2017-Oct-17 17:30N 54°48' E 014°05'1 0.4
2017-Oct-17 15:46N 54°48' E 014°04'0 0.0
2017-Oct-17 13:27N 54°48' E 014°04'0 0.3
2017-Oct-17 13:00N 54°48' E 014°04'0 0.1
2017-Oct-17 12:05N 54°48' E 014°04'0 0.3
2017-Oct-17 11:59N 54°48' E 014°04'0 0.3
2017-Oct-17 11:26N 54°48' E 014°04'1 0.9
2017-Oct-17 10:01N 54°46' E 014°06'0 4.6
2017-Oct-17 09:56N 54°46' E 014°06'0 0.6
2017-Oct-17 09:30N 54°47' E 014°06'0 0.1
2017-Oct-17 09:00N 54°47' E 014°06'0 0.3
2017-Oct-17 08:29N 54°47' E 014°06'0 0.8
2017-Oct-17 07:55N 54°47' E 014°06'1 0.1
2017-Oct-16 23:56N 54°47' E 014°07'0 0.6
2017-Oct-16 23:27N 54°47' E 014°06'0 0.3
2017-Oct-16 22:52N 54°47' E 014°06'0 0.2
2017-Oct-16 22:28N 54°47' E 014°06'1 1.7
2017-Oct-16 21:52N 54°46' E 014°05'1 2.6
2017-Oct-16 21:30N 54°47' E 014°06'1 2.4
2017-Oct-16 20:56N 54°46' E 014°05'0 0.0
2017-Oct-16 20:22N 54°46' E 014°05'0 0.3
2017-Oct-16 19:39N 54°46' E 014°05'0 0.3
2017-Oct-16 19:27N 54°46' E 014°05'1 0.6
2017-Oct-16 16:57N 54°47' E 014°07'0 0.0
2017-Oct-16 15:23N 54°47' E 014°07'0 0.0
2017-Oct-16 14:37N 54°47' E 014°07'2 0.3
2017-Oct-16 08:21N 54°45' E 014°06'0 0.1
2017-Oct-16 06:56N 54°45' E 014°06'0 0.0
2017-Oct-15 22:34N 54°46' E 014°06'0 1.1
2017-Oct-15 22:14N 54°46' E 014°07'1 1.3
2017-Oct-15 21:48N 54°45' E 014°06'0 0.4
2017-Oct-15 21:24N 54°45' E 014°06'0 0.6
2017-Oct-15 20:36N 54°46' E 014°06'0 0.7
2017-Oct-15 20:28N 54°46' E 014°06'0 0.0
2017-Oct-15 11:14N 54°46' E 014°07'1 1.1
2017-Oct-15 10:38N 54°46' E 014°06'0 0.1
2017-Oct-15 09:02N 54°46' E 014°06'0 2.3
2017-Oct-15 08:56N 54°46' E 014°06'0 0.2
2017-Oct-15 08:10N 54°46' E 014°06'0 1.0
2017-Oct-15 08:00N 54°46' E 014°06'  
2017-Oct-10 05:03N 54°47' E 014°10'1 0.2
2017-Oct-09 23:36N 54°47' E 014°09'1 6.9
2017-Oct-09 23:24N 54°47' E 014°11'0 0.3
2017-Oct-09 22:03N 54°48' E 014°11'  
Track history (hours):
 
Tides and Currents Weather Stations Pressure Air Temp Water Temp Dewpoint Dewpoint Depression Visibility Wind Speed Wind Dir Waves Ship Positions

Martine P

Last reported at 2017-Oct-19 21:55 UTC. Time now 2017-Oct-20 03:38 UTC.
Position N 54°47' E 014°04'.

Length 27 m; draft 3.2 m.

Type: Tug. MMSI: 235091541.

Date/timePositionNaut miles runAvg speedWind from/ knotsBaromVisibWave heightAir tempDewpointWater temp
2017-Oct-19 21:55N 54°47' E 014°04'2 3.8
2017-Oct-19 21:30N 54°46' E 014°07'2 2.9
2017-Oct-19 20:58N 54°47' E 014°05'2 1.1
2017-Oct-19 19:02N 54°48' E 014°08'0 0.0
2017-Oct-19 19:00N 54°48' E 014°08'1 0.2
2017-Oct-19 13:40N 54°49' E 014°09'0 0.0
2017-Oct-19 11:44N 54°49' E 014°09'3 1.0
2017-Oct-19 08:49N 54°48' E 014°05'2 1.1
2017-Oct-19 07:00N 54°48' E 014°08'1 0.3
2017-Oct-19 02:13N 54°49' E 014°09'0 0.9
2017-Oct-19 02:00N 54°49' E 014°09'3 0.2
2017-Oct-18 13:27N 54°48' E 014°05'0 0.0
2017-Oct-18 12:56N 54°48' E 014°05'1 2.0
2017-Oct-18 12:28N 54°48' E 014°07'1 2.2
2017-Oct-18 11:49N 54°49' E 014°09'3 1.3
2017-Oct-18 09:42N 54°48' E 014°04'0 0.0
2017-Oct-18 09:11N 54°48' E 014°04'0 1.1
2017-Oct-18 08:47N 54°48' E 014°05'1 1.6
2017-Oct-18 08:27N 54°48' E 014°04'0 0.1
2017-Oct-18 07:44N 54°48' E 014°04'0 0.7
2017-Oct-18 07:18N 54°48' E 014°05'0 0.3
2017-Oct-18 06:46N 54°48' E 014°05'0 0.7
2017-Oct-18 06:20N 54°48' E 014°04'0 0.3
2017-Oct-18 05:32N 54°47' E 014°04'0 0.1
2017-Oct-18 04:27N 54°48' E 014°04'0 0.2
2017-Oct-18 03:36N 54°48' E 014°04'0 0.0
2017-Oct-18 03:18N 54°48' E 014°04'0 0.1
2017-Oct-17 22:36N 54°48' E 014°05'0 0.4
2017-Oct-17 21:23N 54°48' E 014°04'1 1.1
2017-Oct-17 20:32N 54°48' E 014°06'0 0.7
2017-Oct-17 20:30N 54°48' E 014°06'0 0.2
2017-Oct-17 19:55N 54°48' E 014°06'0 0.4
2017-Oct-17 19:21N 54°48' E 014°06'0 0.4
2017-Oct-17 18:06N 54°48' E 014°05'0 0.6
2017-Oct-17 17:44N 54°48' E 014°05'0 0.4
2017-Oct-17 17:30N 54°48' E 014°05'1 0.4
2017-Oct-17 15:46N 54°48' E 014°04'0 0.0
2017-Oct-17 13:27N 54°48' E 014°04'0 0.3
2017-Oct-17 13:00N 54°48' E 014°04'0 0.1
2017-Oct-17 12:05N 54°48' E 014°04'0 0.3
2017-Oct-17 11:59N 54°48' E 014°04'0 0.3
2017-Oct-17 11:26N 54°48' E 014°04'1 0.9
2017-Oct-17 10:01N 54°46' E 014°06'0 4.6
2017-Oct-17 09:56N 54°46' E 014°06'0 0.6
2017-Oct-17 09:30N 54°47' E 014°06'0 0.1
2017-Oct-17 09:00N 54°47' E 014°06'0 0.3
2017-Oct-17 08:29N 54°47' E 014°06'0 0.8
2017-Oct-17 07:55N 54°47' E 014°06'1 0.1
2017-Oct-16 23:56N 54°47' E 014°07'0 0.6
2017-Oct-16 23:27N 54°47' E 014°06'0 0.3
2017-Oct-16 22:52N 54°47' E 014°06'0 0.2
2017-Oct-16 22:28N 54°47' E 014°06'1 1.7
2017-Oct-16 21:52N 54°46' E 014°05'1 2.6
2017-Oct-16 21:30N 54°47' E 014°06'1 2.4
2017-Oct-16 20:56N 54°46' E 014°05'0 0.0
2017-Oct-16 20:22N 54°46' E 014°05'0 0.3
2017-Oct-16 19:39N 54°46' E 014°05'0 0.3
2017-Oct-16 19:27N 54°46' E 014°05'1 0.6
2017-Oct-16 16:57N 54°47' E 014°07'0 0.0
2017-Oct-16 15:23N 54°47' E 014°07'0 0.0
2017-Oct-16 14:37N 54°47' E 014°07'2 0.3
2017-Oct-16 08:21N 54°45' E 014°06'0 0.1
2017-Oct-16 06:56N 54°45' E 014°06'0 0.0
2017-Oct-15 22:34N 54°46' E 014°06'0 1.1
2017-Oct-15 22:14N 54°46' E 014°07'1 1.3
2017-Oct-15 21:48N 54°45' E 014°06'0 0.4
2017-Oct-15 21:24N 54°45' E 014°06'0 0.6
2017-Oct-15 20:36N 54°46' E 014°06'0 0.7
2017-Oct-15 20:28N 54°46' E 014°06'0 0.0
2017-Oct-15 11:14N 54°46' E 014°07'1 1.1
2017-Oct-15 10:38N 54°46' E 014°06'0 0.1
2017-Oct-15 09:02N 54°46' E 014°06'0 2.3
2017-Oct-15 08:56N 54°46' E 014°06'0 0.2
2017-Oct-15 08:10N 54°46' E 014°06'0 1.0
2017-Oct-15 08:00N 54°46' E 014°06'  
2017-Oct-10 05:03N 54°47' E 014°10'1 0.2
2017-Oct-09 23:36N 54°47' E 014°09'1 6.9
2017-Oct-09 23:24N 54°47' E 014°11'0 0.3
2017-Oct-09 22:03N 54°48' E 014°11'  

Dump ship's entire track history